createdAt,value
2018-06-19T00:00:17.103Z,0
2018-06-19T00:00:57.618Z,0
2018-06-19T00:01:38.147Z,0
2018-06-19T00:02:18.673Z,0
2018-06-19T00:02:59.179Z,0
2018-06-19T00:03:39.703Z,0
2018-06-19T00:04:20.223Z,0
2018-06-19T00:05:00.764Z,0
2018-06-19T00:05:41.275Z,0
2018-06-19T00:06:21.806Z,0
2018-06-19T00:07:02.347Z,0
2018-06-19T00:07:42.860Z,0
2018-06-19T00:08:23.380Z,0
2018-06-19T00:09:03.898Z,0
2018-06-19T00:09:44.417Z,0
2018-06-19T00:10:24.935Z,0
2018-06-19T00:11:05.474Z,0
2018-06-19T00:11:45.993Z,0
2018-06-19T00:12:26.523Z,0
2018-06-19T00:13:07.040Z,0
2018-06-19T00:13:47.582Z,0
2018-06-19T00:14:28.099Z,0
2018-06-19T00:15:08.628Z,0
2018-06-19T00:15:49.155Z,0
2018-06-19T00:16:29.668Z,0
2018-06-19T00:17:10.197Z,0
2018-06-19T00:17:50.714Z,0
2018-06-19T00:18:31.250Z,0
2018-06-19T00:19:11.765Z,0
2018-06-19T00:19:52.362Z,0
2018-06-19T00:20:32.851Z,0
2018-06-19T00:21:13.386Z,0
2018-06-19T00:21:53.916Z,0
2018-06-19T00:22:34.436Z,0
2018-06-19T00:23:14.985Z,0
2018-06-19T00:23:55.504Z,0
2018-06-19T00:24:36.021Z,0
2018-06-19T00:25:16.544Z,0
2018-06-19T00:25:57.076Z,0
2018-06-19T00:26:37.619Z,0
2018-06-19T00:27:18.141Z,0
2018-06-19T00:27:58.667Z,0
2018-06-19T00:28:39.180Z,0
2018-06-19T00:29:19.706Z,0
2018-06-19T00:30:00.226Z,0
2018-06-19T00:30:40.747Z,0
2018-06-19T00:31:21.269Z,0
2018-06-19T00:32:01.795Z,0
2018-06-19T00:32:42.309Z,0
2018-06-19T00:33:22.825Z,0
2018-06-19T00:34:03.338Z,0
2018-06-19T00:34:43.849Z,0
2018-06-19T00:35:24.376Z,0
2018-06-19T00:36:04.893Z,0
2018-06-19T00:36:45.417Z,0
2018-06-19T00:37:25.934Z,0
2018-06-19T00:38:06.454Z,0
2018-06-19T00:38:46.977Z,0
2018-06-19T00:39:27.505Z,0
2018-06-19T00:40:08.024Z,0
2018-06-19T00:40:48.550Z,0
2018-06-19T00:41:29.085Z,0
2018-06-19T00:42:09.603Z,0
2018-06-19T00:42:50.126Z,0
2018-06-19T00:43:30.647Z,0
2018-06-19T00:44:11.165Z,0
2018-06-19T00:44:51.685Z,0
2018-06-19T00:45:32.206Z,0
2018-06-19T00:46:12.719Z,0
2018-06-19T00:46:53.262Z,0
2018-06-19T00:47:33.785Z,0
2018-06-19T00:48:14.305Z,0
2018-06-19T00:48:54.829Z,0
2018-06-19T00:49:35.368Z,0
2018-06-19T00:50:15.886Z,0
2018-06-19T00:50:56.405Z,0
2018-06-19T00:51:36.926Z,0
2018-06-19T00:52:17.451Z,0
2018-06-19T00:52:57.995Z,0
2018-06-19T00:53:38.515Z,0
2018-06-19T00:54:19.040Z,0
2018-06-19T00:54:59.563Z,0
2018-06-19T00:55:40.086Z,0
2018-06-19T00:56:20.615Z,0
2018-06-19T00:57:01.123Z,0
2018-06-19T00:57:41.644Z,0
2018-06-19T00:58:22.177Z,0
2018-06-19T00:59:02.689Z,0
2018-06-19T00:59:43.228Z,0
2018-06-19T01:00:23.744Z,0
2018-06-19T01:01:04.253Z,0
2018-06-19T01:01:44.765Z,0
2018-06-19T01:02:25.285Z,0
2018-06-19T01:03:05.800Z,0
2018-06-19T01:03:46.313Z,0
2018-06-19T01:04:26.831Z,0
2018-06-19T01:05:07.355Z,0
2018-06-19T01:05:47.889Z,0
2018-06-19T01:06:28.422Z,0
2018-06-19T01:07:08.972Z,0
2018-06-19T01:07:49.489Z,0
2018-06-19T01:08:30.008Z,0
2018-06-19T01:09:10.542Z,0
2018-06-19T01:09:51.054Z,0
2018-06-19T01:10:31.568Z,0
2018-06-19T01:11:12.088Z,0
2018-06-19T01:11:52.620Z,0
2018-06-19T01:12:33.140Z,0
2018-06-19T01:13:13.842Z,0
2018-06-19T01:13:54.190Z,0
2018-06-19T01:14:34.714Z,0
2018-06-19T01:15:15.233Z,0
2018-06-19T01:15:55.759Z,0
2018-06-19T01:16:36.278Z,0
2018-06-19T01:17:16.807Z,0
2018-06-19T01:17:57.321Z,0
2018-06-19T01:18:37.835Z,0
2018-06-19T01:19:18.362Z,0
2018-06-19T01:19:58.873Z,0
2018-06-19T01:20:39.382Z,0
2018-06-19T01:21:19.912Z,0
2018-06-19T01:22:00.440Z,0
2018-06-19T01:22:40.964Z,0
2018-06-19T01:23:21.500Z,0
2018-06-19T01:24:02.012Z,0
2018-06-19T01:24:42.535Z,0
2018-06-19T01:25:23.059Z,0
2018-06-19T01:26:03.579Z,0
2018-06-19T01:26:44.117Z,0
2018-06-19T01:27:24.637Z,0
2018-06-19T01:28:05.162Z,0
2018-06-19T01:28:45.677Z,0
2018-06-19T01:29:26.208Z,0
2018-06-19T01:30:06.718Z,0
2018-06-19T01:30:47.241Z,0
2018-06-19T01:31:27.751Z,0
2018-06-19T01:32:08.281Z,0
2018-06-19T01:32:48.805Z,0
2018-06-19T01:33:29.323Z,0
2018-06-19T01:34:09.844Z,0
2018-06-19T01:34:50.386Z,0
2018-06-19T01:35:30.911Z,0
2018-06-19T01:36:11.447Z,0
2018-06-19T01:36:51.966Z,0
2018-06-19T01:37:32.475Z,0
2018-06-19T01:38:13.181Z,0
2018-06-19T01:38:53.529Z,0
2018-06-19T01:39:34.042Z,0
2018-06-19T01:40:14.588Z,0
2018-06-19T01:40:55.112Z,0
2018-06-19T01:41:35.649Z,0
2018-06-19T01:42:16.161Z,0
2018-06-19T01:44:44.655Z,0
2018-06-19T01:45:25.173Z,0
2018-06-19T01:46:05.700Z,0
2018-06-19T01:46:46.231Z,0
2018-06-19T01:47:26.758Z,0
2018-06-19T01:48:07.276Z,0
2018-06-19T01:48:47.791Z,0
2018-06-19T01:49:28.307Z,0
2018-06-19T01:50:08.827Z,0
2018-06-19T01:50:49.336Z,0
2018-06-19T01:51:29.861Z,0
2018-06-19T01:52:10.375Z,0
2018-06-19T01:52:50.893Z,0
2018-06-19T01:53:31.415Z,0
2018-06-19T01:54:11.942Z,0
2018-06-19T01:54:52.457Z,0
2018-06-19T01:55:32.978Z,0
2018-06-19T01:56:13.516Z,0
2018-06-19T01:56:54.035Z,0
2018-06-19T01:57:34.561Z,0
2018-06-19T01:58:15.088Z,0
2018-06-19T01:58:55.628Z,0
2018-06-19T01:59:36.152Z,0
2018-06-19T02:00:16.669Z,0
2018-06-19T02:00:57.198Z,0
2018-06-19T02:01:37.732Z,0
2018-06-19T02:02:18.256Z,0
2018-06-19T02:02:58.790Z,0
2018-06-19T02:03:39.319Z,0
2018-06-19T02:04:19.839Z,0
2018-06-19T02:05:00.349Z,0
2018-06-19T02:05:40.880Z,0
2018-06-19T02:06:21.398Z,0
2018-06-19T02:07:01.938Z,0
2018-06-19T02:07:42.474Z,0
2018-06-19T02:08:23.000Z,0
2018-06-19T02:09:03.537Z,0
2018-06-19T02:09:44.126Z,0
2018-06-19T02:10:24.676Z,0
2018-06-19T02:11:05.203Z,0
2018-06-19T02:11:45.722Z,0
2018-06-19T02:12:26.242Z,0
2018-06-19T02:13:06.756Z,0
2018-06-19T02:13:47.294Z,0
2018-06-19T02:14:27.806Z,0
2018-06-19T02:15:08.320Z,0
2018-06-19T02:15:48.854Z,0
2018-06-19T02:16:29.369Z,0
2018-06-19T02:17:09.887Z,0
2018-06-19T02:17:50.402Z,0
2018-06-19T02:18:30.924Z,0
2018-06-19T02:19:11.453Z,0
2018-06-19T02:19:51.986Z,0
2018-06-19T02:20:32.517Z,0
2018-06-19T02:21:13.049Z,0
2018-06-19T02:21:53.570Z,0
2018-06-19T02:22:34.119Z,0
2018-06-19T02:23:14.647Z,0
2018-06-19T02:23:55.161Z,0
2018-06-19T02:24:35.686Z,0
2018-06-19T02:25:16.202Z,0
2018-06-19T02:25:56.728Z,0
2018-06-19T02:26:37.254Z,0
2018-06-19T02:27:17.758Z,0
2018-06-19T02:27:58.276Z,0
2018-06-19T02:28:38.809Z,0
2018-06-19T02:29:19.320Z,0
2018-06-19T02:29:59.828Z,0
2018-06-19T02:30:40.354Z,0
2018-06-19T02:31:20.878Z,0
2018-06-19T02:32:01.398Z,0
2018-06-19T02:32:41.920Z,0
2018-06-19T02:33:22.443Z,0
2018-06-19T02:34:02.968Z,0
2018-06-19T02:34:43.485Z,0
2018-06-19T02:35:24.015Z,0
2018-06-19T02:36:04.547Z,0
2018-06-19T02:36:45.066Z,0
2018-06-19T02:37:25.591Z,0
2018-06-19T02:38:06.108Z,0
2018-06-19T02:38:46.627Z,0
2018-06-19T02:39:27.149Z,0
2018-06-19T02:40:07.676Z,0
2018-06-19T02:40:48.192Z,0
2018-06-19T02:41:28.712Z,0
2018-06-19T02:42:09.237Z,0
2018-06-19T02:42:49.759Z,0
2018-06-19T02:43:30.275Z,0
2018-06-19T02:44:10.798Z,0
2018-06-19T02:44:51.318Z,0
2018-06-19T02:45:31.831Z,0
2018-06-19T02:46:12.353Z,0
2018-06-19T02:46:52.874Z,0
2018-06-19T02:47:33.398Z,0
2018-06-19T02:48:13.918Z,0
2018-06-19T02:48:54.460Z,0
2018-06-19T02:49:34.970Z,0
2018-06-19T02:50:15.482Z,0
2018-06-19T02:50:56.000Z,0
2018-06-19T02:51:36.515Z,0
2018-06-19T02:52:17.045Z,0
2018-06-19T02:52:57.564Z,0
2018-06-19T02:53:38.080Z,0
2018-06-19T02:54:18.609Z,0
2018-06-19T02:54:59.132Z,0
2018-06-19T02:55:39.712Z,0
2018-06-19T02:56:20.220Z,0
2018-06-19T02:57:00.733Z,0
2018-06-19T02:57:41.261Z,0
2018-06-19T02:58:21.781Z,0
2018-06-19T02:59:02.302Z,0
2018-06-19T02:59:42.824Z,0
2018-06-19T03:00:23.388Z,0
2018-06-19T03:01:03.880Z,0
2018-06-19T03:01:44.395Z,0
2018-06-19T03:02:24.932Z,0
2018-06-19T03:03:05.452Z,0
2018-06-19T03:03:45.966Z,0
2018-06-19T03:04:26.486Z,0
2018-06-19T03:05:07.004Z,0
2018-06-19T03:05:47.543Z,0
2018-06-19T03:06:28.035Z,0
2018-06-19T03:07:08.578Z,0
2018-06-19T03:07:49.099Z,0
2018-06-19T03:08:29.620Z,0
2018-06-19T03:09:10.152Z,0
2018-06-19T03:09:50.720Z,0
2018-06-19T03:10:31.234Z,0
2018-06-19T03:11:11.755Z,0
2018-06-19T03:11:52.273Z,0
2018-06-19T03:12:32.799Z,0
2018-06-19T03:13:13.324Z,0
2018-06-19T03:13:53.877Z,0
2018-06-19T03:14:34.394Z,0
2018-06-19T03:15:14.935Z,0
2018-06-19T03:15:55.451Z,0
2018-06-19T03:16:35.973Z,0
2018-06-19T03:17:16.484Z,0
2018-06-19T03:17:57.005Z,0
2018-06-19T03:20:14.989Z,5
2018-06-19T03:20:55.503Z,5
2018-06-19T03:21:36.024Z,5
2018-06-19T03:22:16.547Z,5
2018-06-19T03:22:57.065Z,5
2018-06-19T03:23:37.578Z,5
2018-06-19T03:24:18.094Z,5
2018-06-19T03:24:58.626Z,5
2018-06-19T03:25:39.135Z,5
2018-06-19T03:26:19.669Z,5
2018-06-19T03:27:00.187Z,5
2018-06-19T03:27:40.717Z,5
2018-06-19T03:28:21.253Z,5
2018-06-19T03:29:01.760Z,5
2018-06-19T03:29:42.280Z,5
2018-06-19T03:30:22.932Z,5
2018-06-19T03:31:03.316Z,5
2018-06-19T03:31:43.835Z,5
2018-06-19T03:32:24.425Z,5
2018-06-19T03:33:04.912Z,5
2018-06-19T03:33:45.428Z,5
2018-06-19T03:34:26.013Z,5
2018-06-19T03:35:06.502Z,5
2018-06-19T03:35:47.027Z,5
2018-06-19T03:36:27.544Z,5
2018-06-19T03:37:08.084Z,5
2018-06-19T03:37:48.603Z,10
2018-06-19T03:38:29.125Z,10
2018-06-19T03:39:09.657Z,10
2018-06-19T03:39:50.177Z,10
2018-06-19T03:40:30.689Z,10
2018-06-19T03:41:11.200Z,15
2018-06-19T03:41:51.729Z,15
2018-06-19T03:42:32.261Z,15
2018-06-19T03:43:12.775Z,15
2018-06-19T03:43:53.301Z,15
2018-06-19T03:44:33.816Z,20
2018-06-19T03:45:14.339Z,20
2018-06-19T03:45:54.867Z,20
2018-06-19T03:46:35.389Z,20
2018-06-19T03:47:15.912Z,20
2018-06-19T03:47:56.437Z,20
2018-06-19T03:48:36.941Z,20
2018-06-19T03:49:17.467Z,25
2018-06-19T03:49:57.986Z,25
2018-06-19T03:50:38.494Z,25
2018-06-19T03:51:19.007Z,25
2018-06-19T03:51:59.579Z,25
2018-06-19T03:52:40.083Z,25
2018-06-19T03:53:20.598Z,30
2018-06-19T03:54:01.123Z,30
2018-06-19T03:54:41.642Z,30
2018-06-19T03:55:22.165Z,30
2018-06-19T03:56:02.684Z,30
2018-06-19T03:56:43.196Z,30
2018-06-19T03:57:23.739Z,35
2018-06-19T03:58:04.261Z,35
2018-06-19T03:58:44.772Z,35
2018-06-19T03:59:25.288Z,35
2018-06-19T04:00:05.808Z,35
2018-06-19T04:00:46.335Z,35
2018-06-19T04:01:26.840Z,35
2018-06-19T04:02:07.374Z,35
2018-06-19T04:02:47.930Z,35
2018-06-19T04:03:28.452Z,35
2018-06-19T04:04:08.973Z,40
2018-06-19T04:04:49.485Z,50
2018-06-19T04:05:29.994Z,50
2018-06-19T04:06:10.503Z,50
2018-06-19T04:06:51.051Z,50
2018-06-19T04:07:31.596Z,60
2018-06-19T04:08:12.118Z,60
2018-06-19T04:08:52.652Z,60
2018-06-19T04:09:33.180Z,55
2018-06-19T04:10:13.688Z,50
2018-06-19T04:10:54.207Z,45
2018-06-19T04:11:34.727Z,45
2018-06-19T04:12:15.249Z,45
2018-06-19T04:12:55.769Z,45
2018-06-19T04:13:36.288Z,45
2018-06-19T04:14:16.804Z,45
2018-06-19T04:14:57.322Z,45
2018-06-19T04:15:37.854Z,50
2018-06-19T04:16:18.352Z,50
2018-06-19T04:16:58.868Z,50
2018-06-19T04:17:39.385Z,50
2018-06-19T04:18:19.909Z,50
2018-06-19T04:19:00.421Z,55
2018-06-19T04:19:40.916Z,50
2018-06-19T04:20:21.451Z,55
2018-06-19T04:21:01.961Z,55
2018-06-19T04:21:42.491Z,55
2018-06-19T04:22:23.016Z,55
2018-06-19T04:23:03.558Z,55
2018-06-19T04:23:44.079Z,55
2018-06-19T04:24:24.595Z,60
2018-06-19T04:25:05.133Z,60
2018-06-19T04:25:45.655Z,65
2018-06-19T04:26:26.167Z,60
2018-06-19T04:27:06.733Z,60
2018-06-19T04:27:47.252Z,65
2018-06-19T04:28:28.286Z,70
2018-06-19T04:29:08.299Z,75
2018-06-19T04:29:48.837Z,75
2018-06-19T04:30:29.338Z,75
2018-06-19T04:31:09.861Z,75
2018-06-19T04:31:50.386Z,70
2018-06-19T04:32:30.901Z,70
2018-06-19T04:33:11.430Z,70
2018-06-19T04:33:51.960Z,65
2018-06-19T04:34:32.478Z,60
2018-06-19T04:35:12.994Z,55
2018-06-19T04:35:53.508Z,50
2018-06-19T04:36:34.029Z,50
2018-06-19T04:37:15.288Z,50
2018-06-19T04:37:55.067Z,50
2018-06-19T04:38:35.586Z,55
2018-06-19T04:39:16.114Z,60
2018-06-19T04:39:56.635Z,70
2018-06-19T04:40:37.205Z,75
2018-06-19T04:41:17.691Z,75
2018-06-19T04:41:58.219Z,75
2018-06-19T04:42:38.745Z,70
2018-06-19T04:43:19.250Z,70
2018-06-19T04:43:59.793Z,65
2018-06-19T04:44:40.326Z,60
2018-06-19T04:45:20.850Z,55
2018-06-19T04:46:01.384Z,65
2018-06-19T04:46:41.932Z,55
2018-06-19T04:47:22.441Z,50
2018-06-19T04:48:02.988Z,45
2018-06-19T04:48:43.515Z,45
2018-06-19T04:49:24.038Z,40
2018-06-19T04:50:04.555Z,40
2018-06-19T04:50:45.083Z,40
2018-06-19T04:51:25.593Z,35
2018-06-19T04:52:06.129Z,35
2018-06-19T04:52:46.646Z,35
2018-06-19T04:53:27.162Z,35
2018-06-19T04:54:07.680Z,35
2018-06-19T04:54:48.242Z,35
2018-06-19T04:55:28.755Z,40
2018-06-19T04:56:09.382Z,40
2018-06-19T04:56:49.900Z,40
2018-06-19T04:57:30.417Z,40
2018-06-19T04:58:10.937Z,40
2018-06-19T04:58:51.467Z,45
2018-06-19T04:59:31.986Z,45
2018-06-19T05:00:12.526Z,45
2018-06-19T05:00:53.041Z,50
2018-06-19T05:01:33.564Z,55
2018-06-19T05:02:14.089Z,55
2018-06-19T05:02:54.606Z,60
2018-06-19T05:03:35.133Z,55
2018-06-19T05:04:15.647Z,55
2018-06-19T05:04:56.162Z,55
2018-06-19T05:05:36.689Z,55
2018-06-19T05:06:17.210Z,50
2018-06-19T05:06:58.802Z,55
2018-06-19T05:07:38.348Z,55
2018-06-19T05:08:18.866Z,60
2018-06-19T05:08:59.374Z,60
2018-06-19T05:09:39.911Z,60
2018-06-19T05:10:20.435Z,60
2018-06-19T05:11:00.969Z,60
2018-06-19T05:11:41.488Z,65
2018-06-19T05:12:22.023Z,70
2018-06-19T05:13:02.562Z,75
2018-06-19T05:13:43.108Z,75
2018-06-19T05:14:23.636Z,75
2018-06-19T05:15:04.156Z,75
2018-06-19T05:15:44.684Z,75
2018-06-19T05:16:25.224Z,75
2018-06-19T05:17:05.756Z,80
2018-06-19T05:17:46.266Z,80
2018-06-19T05:18:26.793Z,80
2018-06-19T05:19:07.319Z,80
2018-06-19T05:19:47.866Z,75
2018-06-19T05:20:28.401Z,70
2018-06-19T05:21:08.923Z,70
2018-06-19T05:23:47.109Z,70
2018-06-19T05:24:27.636Z,80
2018-06-19T05:25:08.162Z,85
2018-06-19T05:25:48.678Z,90
2018-06-19T05:26:29.198Z,95
2018-06-19T05:27:09.712Z,140
2018-06-19T05:27:50.227Z,125
2018-06-19T05:28:30.744Z,95
2018-06-19T05:29:11.268Z,80
2018-06-19T05:29:51.788Z,70
2018-06-19T05:30:32.306Z,60
2018-06-19T05:31:12.842Z,60
2018-06-19T05:31:53.361Z,55
2018-06-19T05:32:33.895Z,50
2018-06-19T05:33:14.421Z,50
2018-06-19T05:33:54.966Z,50
2018-06-19T05:34:35.473Z,55
2018-06-19T05:35:16.026Z,55
2018-06-19T05:35:56.537Z,60
2018-06-19T05:36:37.055Z,65
2018-06-19T05:37:17.568Z,65
2018-06-19T05:37:58.079Z,75
2018-06-19T05:38:38.678Z,80
2018-06-19T05:39:19.225Z,85
2018-06-19T05:39:59.739Z,90
2018-06-19T05:40:40.303Z,90
2018-06-19T05:41:20.802Z,100
2018-06-19T05:42:01.351Z,105
2018-06-19T05:42:41.836Z,110
2018-06-19T05:43:22.370Z,120
2018-06-19T05:44:02.881Z,125
2018-06-19T05:44:43.395Z,135
2018-06-19T05:45:23.923Z,130
2018-06-19T05:46:04.449Z,135
2018-06-19T05:46:44.966Z,140
2018-06-19T05:47:25.506Z,140
2018-06-19T05:48:06.026Z,140
2018-06-19T05:48:46.555Z,135
2018-06-19T05:49:27.064Z,140
2018-06-19T05:50:07.592Z,140
2018-06-19T05:50:48.109Z,140
2018-06-19T05:51:28.625Z,140
2018-06-19T05:52:09.151Z,145
2018-06-19T05:52:49.717Z,155
2018-06-19T05:53:30.217Z,145
2018-06-19T05:54:10.775Z,150
2018-06-19T05:54:51.299Z,145
2018-06-19T05:55:31.819Z,150
2018-06-19T05:56:12.342Z,140
2018-06-19T05:56:52.877Z,140
2018-06-19T05:57:33.417Z,145
2018-06-19T05:58:13.945Z,150
2018-06-19T05:58:54.592Z,150
2018-06-19T05:59:35.172Z,120
2018-06-19T06:00:15.763Z,120
2018-06-19T06:00:56.246Z,105
2018-06-19T06:01:36.782Z,105
2018-06-19T06:02:17.311Z,105
2018-06-19T06:02:57.883Z,110
2018-06-19T06:03:38.417Z,120
2018-06-19T06:04:18.934Z,105
2018-06-19T06:04:59.461Z,105
2018-06-19T06:05:40.087Z,105
2018-06-19T06:06:20.511Z,105
2018-06-19T06:07:01.036Z,105
2018-06-19T06:07:41.561Z,105
2018-06-19T06:08:22.130Z,100
2018-06-19T06:09:02.655Z,100
2018-06-19T06:09:43.182Z,100
2018-06-19T06:10:23.701Z,105
2018-06-19T06:11:04.463Z,105
2018-06-19T06:11:44.979Z,100
2018-06-19T06:12:25.511Z,105
2018-06-19T06:13:06.029Z,105
2018-06-19T06:13:46.568Z,115
2018-06-19T06:14:27.089Z,130
2018-06-19T06:15:07.606Z,125
2018-06-19T06:15:48.138Z,125
2018-06-19T06:16:28.752Z,130
2018-06-19T06:17:09.224Z,130
2018-06-19T06:17:49.741Z,125
2018-06-19T06:18:30.416Z,125
2018-06-19T06:19:10.939Z,125
2018-06-19T06:19:51.453Z,125
2018-06-19T06:20:32.000Z,160
2018-06-19T06:21:12.527Z,185
2018-06-19T06:21:53.020Z,165
2018-06-19T06:22:33.529Z,160
2018-06-19T06:23:14.071Z,155
2018-06-19T06:23:54.596Z,195
2018-06-19T06:24:35.136Z,210
2018-06-19T06:25:15.666Z,200
2018-06-19T06:25:56.185Z,210
2018-06-19T06:26:36.703Z,205
2018-06-19T06:27:17.298Z,210
2018-06-19T06:27:57.827Z,215
2018-06-19T06:28:38.375Z,220
2018-06-19T06:29:18.881Z,210
2018-06-19T06:29:59.411Z,215
2018-06-19T06:30:39.935Z,220
2018-06-19T06:31:20.479Z,220
2018-06-19T06:32:00.994Z,215
2018-06-19T06:32:41.535Z,210
2018-06-19T06:33:22.050Z,205
2018-06-19T06:34:02.575Z,200
2018-06-19T06:34:43.120Z,200
2018-06-19T06:35:23.650Z,195
2018-06-19T06:36:04.225Z,195
2018-06-19T06:36:44.756Z,190
2018-06-19T06:37:25.303Z,190
2018-06-19T06:38:05.817Z,190
2018-06-19T06:38:46.325Z,185
2018-06-19T06:39:26.923Z,185
2018-06-19T06:40:07.425Z,185
2018-06-19T06:40:47.972Z,185
2018-06-19T06:41:28.521Z,185
2018-06-19T06:42:09.060Z,185
2018-06-19T06:42:49.625Z,185
2018-06-19T06:43:30.153Z,175
2018-06-19T06:44:10.675Z,155
2018-06-19T06:44:51.234Z,135
2018-06-19T06:45:31.763Z,160
2018-06-19T06:46:12.283Z,180
2018-06-19T06:46:52.810Z,175
2018-06-19T06:47:33.348Z,180
2018-06-19T06:48:13.871Z,175
2018-06-19T06:48:54.397Z,175
2018-06-19T06:49:34.965Z,175
2018-06-19T06:50:15.541Z,175
2018-06-19T06:50:56.030Z,175
2018-06-19T06:51:36.611Z,175
2018-06-19T06:52:17.155Z,175
2018-06-19T06:52:57.677Z,175
2018-06-19T06:53:38.216Z,175
2018-06-19T06:54:18.726Z,175
2018-06-19T06:54:59.240Z,175
2018-06-19T06:55:39.770Z,175
2018-06-19T06:56:20.391Z,175
2018-06-19T06:57:00.945Z,175
2018-06-19T06:57:41.521Z,175
2018-06-19T06:58:22.042Z,175
2018-06-19T06:59:02.599Z,170
2018-06-19T06:59:43.134Z,175
2018-06-19T07:00:23.665Z,175
2018-06-19T07:01:04.216Z,175
2018-06-19T07:01:44.729Z,170
2018-06-19T07:02:25.269Z,170
2018-06-19T07:03:05.809Z,175
2018-06-19T07:03:46.493Z,175
2018-06-19T07:04:27.165Z,175
2018-06-19T07:05:07.699Z,170
2018-06-19T07:05:48.235Z,170
2018-06-19T07:06:28.764Z,170
2018-06-19T07:07:09.276Z,170
2018-06-19T07:07:49.796Z,170
2018-06-19T07:08:30.337Z,170
2018-06-19T07:09:10.866Z,170
2018-06-19T07:09:51.509Z,170
2018-06-19T07:10:32.135Z,170
2018-06-19T07:11:12.598Z,170
2018-06-19T07:11:53.119Z,170
2018-06-19T07:12:33.638Z,165
2018-06-19T07:13:14.156Z,165
2018-06-19T07:13:54.679Z,170
2018-06-19T07:14:35.194Z,170
2018-06-19T07:15:15.748Z,165
2018-06-19T07:15:56.439Z,165
2018-06-19T07:16:36.964Z,165
2018-06-19T07:17:17.490Z,165
2018-06-19T07:17:58.035Z,165
2018-06-19T07:18:38.560Z,165
2018-06-19T07:19:19.102Z,165
2018-06-19T07:19:59.636Z,165
2018-06-19T07:20:40.199Z,165
2018-06-19T07:21:20.804Z,170
2018-06-19T07:22:01.271Z,170
2018-06-19T07:22:41.903Z,170
2018-06-19T07:23:22.371Z,165
2018-06-19T07:24:02.892Z,165
2018-06-19T07:24:43.426Z,165
2018-06-19T07:25:23.939Z,165
2018-06-19T07:26:04.533Z,165
2018-06-19T07:26:45.001Z,165
2018-06-19T07:27:25.522Z,165
2018-06-19T07:28:06.116Z,165
2018-06-19T07:28:46.580Z,170
2018-06-19T07:29:27.104Z,170
2018-06-19T07:30:07.637Z,175
2018-06-19T07:30:48.175Z,175
2018-06-19T07:31:28.669Z,170
2018-06-19T07:32:09.202Z,140
2018-06-19T07:32:49.714Z,185
2018-06-19T07:33:30.239Z,185
2018-06-19T07:34:10.752Z,160
2018-06-19T07:34:51.286Z,210
2018-06-19T07:35:31.871Z,185
2018-06-19T07:36:12.394Z,205
2018-06-19T07:36:53.086Z,200
2018-06-19T07:37:33.443Z,205
2018-06-19T07:38:13.995Z,165
2018-06-19T07:38:54.482Z,145
2018-06-19T07:39:35.055Z,135
2018-06-19T07:40:15.572Z,210
2018-06-19T07:40:56.106Z,180
2018-06-19T07:41:36.634Z,145
2018-06-19T07:42:17.184Z,140
2018-06-19T07:42:57.731Z,165
2018-06-19T07:43:38.244Z,130
2018-06-19T07:44:18.758Z,130
2018-06-19T07:44:59.303Z,125
2018-06-19T07:45:39.827Z,145
2018-06-19T07:46:20.377Z,215
2018-06-19T07:47:00.919Z,215
2018-06-19T07:47:41.441Z,220
2018-06-19T07:48:21.969Z,205
2018-06-19T07:49:02.576Z,165
2018-06-19T07:49:43.302Z,145
2018-06-19T07:50:23.662Z,145
2018-06-19T07:51:04.193Z,135
2018-06-19T07:51:44.705Z,135
2018-06-19T07:52:25.217Z,135
2018-06-19T07:53:05.756Z,175
2018-06-19T07:53:46.272Z,135
2018-06-19T07:54:26.802Z,130
2018-06-19T07:55:07.321Z,120
2018-06-19T07:55:47.858Z,115
2018-06-19T07:56:28.376Z,175
2018-06-19T07:57:08.894Z,120
2018-06-19T07:57:49.448Z,115
2018-06-19T07:58:29.990Z,115
2018-06-19T07:59:10.519Z,200
2018-06-19T07:59:51.037Z,190
2018-06-19T08:00:31.554Z,140
2018-06-19T08:01:12.087Z,120
2018-06-19T08:01:52.613Z,120
2018-06-19T08:02:33.171Z,130
2018-06-19T08:03:13.703Z,125
2018-06-19T08:03:54.263Z,130
2018-06-19T08:04:34.827Z,180
2018-06-19T08:05:15.334Z,180
2018-06-19T08:05:55.857Z,200
2018-06-19T08:06:36.451Z,150
2018-06-19T08:07:16.975Z,170
2018-06-19T08:07:58.392Z,185
2018-06-19T08:08:38.903Z,160
2018-06-19T08:09:19.419Z,175
2018-06-19T08:09:59.947Z,145
2018-06-19T08:10:40.475Z,200
2018-06-19T08:11:20.998Z,140
2018-06-19T08:12:01.510Z,180
2018-06-19T08:12:42.064Z,155
2018-06-19T08:13:22.625Z,125
2018-06-19T08:14:03.118Z,115
2018-06-19T08:14:43.660Z,115
2018-06-19T08:15:24.178Z,120
2018-06-19T08:16:04.703Z,115
2018-06-19T08:16:45.248Z,120
2018-06-19T08:17:25.793Z,115
2018-06-19T08:18:06.359Z,110
2018-06-19T08:18:46.902Z,110
2018-06-19T08:19:27.425Z,105
2018-06-19T08:20:07.944Z,125
2018-06-19T08:20:48.467Z,160
2018-06-19T08:21:29.007Z,155
2018-06-19T08:22:09.537Z,155
2018-06-19T08:22:50.070Z,150
2018-06-19T08:23:30.589Z,140
2018-06-19T08:24:11.114Z,105
2018-06-19T08:24:51.642Z,140
2018-06-19T08:25:32.172Z,95
2018-06-19T08:26:12.696Z,140
2018-06-19T08:26:53.205Z,125
2018-06-19T08:27:33.740Z,175
2018-06-19T08:28:14.263Z,115
2018-06-19T08:28:54.801Z,110
2018-06-19T08:29:35.342Z,140
2018-06-19T08:30:15.859Z,105
2018-06-19T08:30:56.400Z,110
2018-06-19T08:31:36.989Z,120
2018-06-19T08:32:17.447Z,115
2018-06-19T08:32:57.977Z,145
2018-06-19T08:33:38.508Z,110
2018-06-19T08:34:19.019Z,115
2018-06-19T08:34:59.534Z,115
2018-06-19T08:35:40.058Z,110
2018-06-19T08:36:20.666Z,110
2018-06-19T08:37:01.156Z,110
2018-06-19T08:37:41.674Z,135
2018-06-19T08:38:22.196Z,130
2018-06-19T08:39:02.722Z,130
2018-06-19T08:39:43.243Z,150
2018-06-19T08:40:23.766Z,135
2018-06-19T08:41:04.306Z,145
2018-06-19T08:41:44.844Z,150
2018-06-19T08:42:25.350Z,150
2018-06-19T08:43:05.907Z,140
2018-06-19T08:43:46.437Z,130
2018-06-19T08:44:26.972Z,120
2018-06-19T08:45:07.521Z,115
2018-06-19T08:45:48.044Z,110
2018-06-19T08:46:28.556Z,110
2018-06-19T08:47:09.096Z,125
2018-06-19T08:47:49.639Z,135
2018-06-19T08:48:30.181Z,130
2018-06-19T08:49:10.725Z,125
2018-06-19T08:49:51.244Z,150
2018-06-19T08:50:31.777Z,140
2018-06-19T08:51:12.396Z,135
2018-06-19T08:51:52.912Z,140
2018-06-19T08:52:33.447Z,140
2018-06-19T08:53:14.023Z,140
2018-06-19T08:53:54.547Z,135
2018-06-19T08:54:35.110Z,140
2018-06-19T08:55:15.659Z,150
2018-06-19T08:55:56.165Z,150
2018-06-19T08:56:36.718Z,145
2018-06-19T08:57:17.243Z,145
2018-06-19T08:57:57.761Z,140
2018-06-19T08:58:38.289Z,135
2018-06-19T08:59:18.796Z,130
2018-06-19T08:59:59.315Z,130
2018-06-19T09:00:41.367Z,125
2018-06-19T09:01:21.888Z,115
2018-06-19T09:02:02.402Z,120
2018-06-19T09:02:42.922Z,110
2018-06-19T09:03:23.447Z,110
2018-06-19T09:04:04.538Z,100
2018-06-19T09:04:45.080Z,100
2018-06-19T09:05:25.608Z,105
2018-06-19T09:06:06.142Z,105
2018-06-19T09:06:46.695Z,110
2018-06-19T09:07:27.217Z,110
2018-06-19T09:08:07.737Z,115
2018-06-19T09:08:48.264Z,135
2018-06-19T09:09:28.788Z,125
2018-06-19T09:10:09.333Z,130
2018-06-19T09:10:49.844Z,130
2018-06-19T09:11:30.363Z,140
2018-06-19T09:12:10.922Z,155
2018-06-19T09:12:51.453Z,150
2018-06-19T09:13:32.003Z,155
2018-06-19T09:14:12.523Z,155
2018-06-19T09:14:53.061Z,155
2018-06-19T09:15:33.607Z,150
2018-06-19T09:16:14.146Z,140
2018-06-19T09:16:54.671Z,120
2018-06-19T09:17:35.209Z,125
2018-06-19T09:18:15.737Z,130
2018-06-19T09:18:56.300Z,120
2018-06-19T09:19:36.783Z,135
2018-06-19T09:20:17.311Z,140
2018-06-19T09:20:57.837Z,145
2018-06-19T09:21:38.367Z,145
2018-06-19T09:22:18.924Z,140
2018-06-19T09:22:59.457Z,115
2018-06-19T09:23:39.989Z,105
2018-06-19T09:24:20.517Z,115
2018-06-19T09:25:01.044Z,110
2018-06-19T09:25:41.567Z,100
2018-06-19T09:26:22.116Z,100
2018-06-19T09:27:02.648Z,110
2018-06-19T09:27:43.147Z,100
2018-06-19T09:28:23.666Z,100
2018-06-19T09:29:04.169Z,105
2018-06-19T09:29:44.689Z,105
2018-06-19T09:30:25.209Z,110
2018-06-19T09:31:05.734Z,120
2018-06-19T09:31:46.254Z,125
2018-06-19T09:32:26.766Z,140
2018-06-19T09:33:07.293Z,150
2018-06-19T09:33:47.878Z,150
2018-06-19T09:34:28.421Z,140
2018-06-19T09:35:08.965Z,130
2018-06-19T09:35:49.497Z,130
2018-06-19T09:36:30.034Z,125
2018-06-19T09:37:10.566Z,125
2018-06-19T09:37:51.093Z,120
2018-06-19T09:38:31.617Z,120
2018-06-19T09:39:12.151Z,125
2018-06-19T09:39:52.684Z,125
2018-06-19T09:40:33.219Z,110
2018-06-19T09:41:13.732Z,105
2018-06-19T09:41:54.246Z,130
2018-06-19T09:42:34.782Z,135